Time;durP1;ratioP1;P1;durP2;ratioP2;P2;SDS_P1;SDS_P2;PMS_P1;PMS_P2;Temp;Humidity;BMP_temperature;BMP_pressure;BME280_temperature;BME280_humidity;BME280_pressure;Samples;Min_cycle;Max_cycle;Signal;HPM_P1;HPM_P2
2023/08/04 00:00:14;;;;;;;;;2.67;2.00;;;;;19.75;68.64;100646.63;5045090;28;45489;-73
2023/08/04 00:02:40;;;;;;;;;3.00;2.00;;;;;19.65;69.23;100643.97;5042226;28;45386;-73
2023/08/04 00:05:08;;;;;;;;;1.00;0.00;;;;;19.75;68.70;100659.88;5046330;28;45397;-72
2023/08/04 00:07:34;;;;;;;;;2.00;1.33;;;;;19.73;68.93;100665.19;5046581;28;46062;-72
2023/08/04 00:10:00;;;;;;;;;2.00;1.00;;;;;19.83;68.46;100673.97;5043828;28;45260;-72
2023/08/04 00:12:26;;;;;;;;;3.00;1.67;;;;;19.66;69.24;100660.78;5044112;28;45988;-74
2023/08/04 00:14:52;;;;;;;;;2.00;2.00;;;;;19.73;68.72;100666.94;5045528;28;45406;-71
2023/08/04 00:17:18;;;;;;;;;2.33;1.00;;;;;19.75;68.95;100665.16;5046900;28;45993;-73
2023/08/04 00:19:43;;;;;;;;;1.67;1.00;;;;;19.78;68.98;100657.22;5045256;28;45874;-72
2023/08/04 00:22:09;;;;;;;;;3.00;1.00;;;;;19.74;68.50;100659.00;5044430;28;46162;-73
2023/08/04 00:24:35;;;;;;;;;1.00;1.00;;;;;19.72;67.29;100657.25;5044652;28;45741;-73
2023/08/04 00:27:01;;;;;;;;;1.00;1.00;;;;;19.73;68.46;100659.88;5050057;28;45510;-72
2023/08/04 00:29:28;;;;;;;;;2.67;1.00;;;;;19.77;68.28;100679.28;5056775;28;45490;-72
2023/08/04 00:31:53;;;;;;;;;1.33;0.67;;;;;19.71;68.85;100672.25;5047127;28;45579;-73
2023/08/04 00:34:19;;;;;;;;;1.33;1.00;;;;;19.72;68.34;100686.41;5050352;28;45502;-72
2023/08/04 00:36:46;;;;;;;;;1.00;1.00;;;;;19.76;69.12;100696.09;5048609;28;46015;-72
2023/08/04 00:39:16;;;;;;;;;1.00;1.00;;;;;19.78;69.03;100707.59;5048736;28;46076;-73
2023/08/04 00:41:42;;;;;;;;;1.00;1.00;;;;;19.70;68.18;100691.69;5045872;28;45302;-72
2023/08/04 00:44:08;;;;;;;;;1.00;1.00;;;;;19.60;68.54;100679.38;5049279;28;45573;-73
2023/08/04 00:46:34;;;;;;;;;1.00;0.67;;;;;19.55;68.57;100681.16;5046893;28;45489;-72
2023/08/04 00:49:01;;;;;;;;;1.33;1.00;;;;;19.58;68.25;100687.31;5050115;28;45362;-72
2023/08/04 00:51:27;;;;;;;;;0.67;0.33;;;;;19.54;68.67;100674.97;5049446;28;45296;-73
2023/08/04 00:53:53;;;;;;;;;0.00;0.00;;;;;19.57;68.66;100669.66;5040427;28;45446;-72
2023/08/04 00:56:20;;;;;;;;;3.00;0.00;;;;;19.57;68.52;100669.66;5039413;28;45553;-72
2023/08/04 00:58:45;;;;;;;;;2.00;1.00;;;;;19.62;68.18;100680.25;5039423;28;45559;-72
2023/08/04 01:01:11;;;;;;;;;1.00;1.00;;;;;19.58;67.98;100674.06;5039326;28;45455;-73
2023/08/04 01:03:40;;;;;;;;;1.67;1.67;;;;;19.44;68.42;100658.25;5038188;28;45482;-72
2023/08/04 01:06:28;;;;;;;;;1.00;0.67;;;;;19.52;68.49;100671.44;5038636;28;45475;-74
2023/08/04 01:09:12;;;;;;;;;1.00;1.00;;;;;19.48;69.36;100667.06;5039378;28;45522;-74
2023/08/04 01:12:18;;;;;;;;;1.00;1.00;;;;;19.36;68.60;100648.53;5039130;28;45233;-73
2023/08/04 01:14:47;;;;;;;;;2.00;1.00;;;;;19.41;69.06;100649.41;5035175;28;45305;-73
2023/08/04 01:17:26;;;;;;;;;2.00;1.33;;;;;19.42;68.96;100651.19;5039122;28;45461;-74
2023/08/04 01:19:52;;;;;;;;;2.00;1.00;;;;;19.43;68.96;100645.88;5039121;28;45664;-73
2023/08/04 01:22:17;;;;;;;;;1.33;1.00;;;;;19.28;68.89;100646.84;5039176;28;45375;-73
2023/08/04 01:24:43;;;;;;;;;1.33;1.00;;;;;19.31;69.71;100663.59;5039225;28;45351;-73
2023/08/04 01:27:13;;;;;;;;;2.00;1.67;;;;;19.25;69.54;100678.59;5039229;28;45798;-73
2023/08/04 01:29:42;;;;;;;;;2.00;1.00;;;;;19.05;70.68;100686.63;5039000;28;45523;-73
2023/08/04 01:32:09;;;;;;;;;2.00;1.00;;;;;19.06;70.84;100687.53;5038924;28;45489;-73
2023/08/04 01:34:34;;;;;;;;;1.00;1.00;;;;;19.11;70.07;100684.84;5038097;28;45415;-73
2023/08/04 01:37:00;;;;;;;;;1.00;1.00;;;;;19.09;69.28;100708.69;5037774;28;45278;-72
2023/08/04 01:39:26;;;;;;;;;0.00;0.00;;;;;19.00;69.02;100692.81;5038927;28;45420;-73
2023/08/04 01:41:52;;;;;;;;;1.33;0.33;;;;;19.03;69.04;100690.16;5033202;28;45494;-74
2023/08/04 01:44:17;;;;;;;;;1.33;0.00;;;;;19.00;68.72;100674.28;5037739;28;45413;-72
2023/08/04 01:46:43;;;;;;;;;1.00;1.00;;;;;19.06;69.06;100676.94;5038491;28;45462;-73
2023/08/04 01:49:09;;;;;;;;;1.00;1.00;;;;;19.06;68.63;100661.03;5038236;28;45497;-73
2023/08/04 01:51:35;;;;;;;;;0.00;0.00;;;;;19.13;67.95;100672.50;5038771;28;45331;-73
2023/08/04 01:54:01;;;;;;;;;1.00;0.33;;;;;19.13;67.88;100670.72;5037462;28;45422;-73
2023/08/04 01:56:27;;;;;;;;;1.00;1.00;;;;;19.13;67.80;100670.72;5038174;28;46129;-73
2023/08/04 01:58:53;;;;;;;;;2.00;1.00;;;;;19.11;68.04;100658.38;5038582;28;45481;-74
2023/08/04 02:01:20;;;;;;;;;2.00;1.00;;;;;19.13;67.75;100652.19;5038554;28;45486;-74
2023/08/04 02:03:45;;;;;;;;;0.67;0.67;;;;;19.05;67.46;100643.38;5038694;28;45546;-72
2023/08/04 02:06:11;;;;;;;;;2.33;0.33;;;;;19.16;67.16;100651.28;5038237;28;45331;-72
2023/08/04 02:08:37;;;;;;;;;2.67;1.00;;;;;19.13;67.13;100641.59;5038431;28;45336;-72
2023/08/04 02:11:03;;;;;;;;;1.33;1.00;;;;;19.18;67.61;100650.41;5038201;28;45363;-74
2023/08/04 02:13:28;;;;;;;;;2.00;1.00;;;;;19.11;68.31;100631.91;5038497;28;45403;-73
2023/08/04 02:15:54;;;;;;;;;1.00;1.00;;;;;19.14;67.86;100648.66;5038696;28;45707;-72
2023/08/04 02:18:20;;;;;;;;;1.00;1.00;;;;;19.13;67.79;100657.47;5038609;28;45246;-72
2023/08/04 02:20:45;;;;;;;;;0.33;0.00;;;;;19.06;67.79;100661.03;5038463;28;45274;-73
2023/08/04 02:23:11;;;;;;;;;1.33;0.33;;;;;19.08;68.22;100664.56;5038441;28;45268;-73
2023/08/04 02:25:37;;;;;;;;;0.33;0.33;;;;;19.11;67.51;100656.59;5038229;28;45428;-73
2023/08/04 02:28:02;;;;;;;;;1.00;1.00;;;;;19.08;67.88;100649.56;5038245;28;45282;-73
2023/08/04 02:30:28;;;;;;;;;3.00;1.00;;;;;19.03;67.78;100640.72;5038309;28;45502;-72
2023/08/04 02:32:54;;;;;;;;;0.67;0.67;;;;;19.11;67.49;100648.66;5038670;28;45229;-72
2023/08/04 02:35:19;;;;;;;;;2.00;1.00;;;;;19.11;67.30;100653.94;5036380;28;46300;-72
2023/08/04 02:37:46;;;;;;;;;2.00;2.00;;;;;19.10;68.06;100657.50;5037945;28;45598;-72
2023/08/04 02:40:11;;;;;;;;;1.00;1.00;;;;;19.18;67.81;100666.28;5037945;28;45585;-73
2023/08/04 02:42:37;;;;;;;;;1.00;1.00;;;;;19.07;67.67;100652.19;5037948;28;45451;-73
2023/08/04 02:45:04;;;;;;;;;1.67;1.33;;;;;19.12;67.59;100658.38;5037804;28;46163;-72
2023/08/04 02:47:30;;;;;;;;;1.33;1.00;;;;;19.07;68.00;100653.06;5036452;28;45355;-72
2023/08/04 02:49:55;;;;;;;;;2.33;2.00;;;;;19.10;67.96;100656.59;5037670;28;45445;-71
2023/08/04 02:52:21;;;;;;;;;1.00;1.00;;;;;19.15;67.71;100676.00;5037884;28;45512;-72
2023/08/04 02:54:47;;;;;;;;;1.00;1.00;;;;;19.06;67.90;100661.03;5037898;28;45545;-73
2023/08/04 02:57:12;;;;;;;;;2.00;2.00;;;;;19.15;68.38;100671.59;5037546;28;45454;-72
2023/08/04 02:59:38;;;;;;;;;0.33;0.33;;;;;19.12;67.98;100670.72;5036155;28;45190;-73
2023/08/04 03:02:04;;;;;;;;;1.00;1.00;;;;;19.14;68.11;100667.19;5037988;28;45226;-73
2023/08/04 03:05:13;;;;;;;;;2.00;1.00;;;;;19.21;68.57;100676.00;5037419;28;45367;-72
2023/08/04 03:07:39;;;;;;;;;1.33;1.00;;;;;19.27;68.01;100682.13;5034623;28;45387;-72
2023/08/04 03:10:05;;;;;;;;;1.67;1.00;;;;;19.21;68.32;100687.44;5037844;28;45511;-72
2023/08/04 03:12:30;;;;;;;;;2.00;2.00;;;;;19.19;67.81;100685.72;5037771;28;45394;-73
2023/08/04 03:18:18;;;;;;;;;2.00;2.00;;;;;19.16;67.73;100683.06;5033365;28;45374;-73
2023/08/04 03:20:43;;;;;;;;;1.67;0.67;;;;;19.17;68.07;100691.00;5037120;28;45199;-73
2023/08/04 03:23:09;;;;;;;;;0.67;0.67;;;;;19.10;68.05;100681.34;5037726;28;45409;-73
2023/08/04 03:25:34;;;;;;;;;1.00;1.00;;;;;19.14;68.56;100677.78;5035915;28;47115;-73
2023/08/04 03:28:00;;;;;;;;;1.00;0.33;;;;;19.18;68.92;100681.28;5037327;28;45468;-73
2023/08/04 03:30:26;;;;;;;;;1.33;1.00;;;;;19.20;68.31;100682.16;5037320;28;45260;-72
2023/08/04 03:32:52;;;;;;;;;1.67;1.00;;;;;19.24;68.23;100676.00;5037507;28;45524;-72
2023/08/04 03:35:18;;;;;;;;;2.00;1.00;;;;;19.26;68.26;100666.28;5037082;28;45217;-73
2023/08/04 03:37:43;;;;;;;;;0.33;0.33;;;;;19.28;68.12;100659.19;5037583;28;45560;-72
2023/08/04 03:40:09;;;;;;;;;2.00;1.00;;;;;19.24;68.01;100650.38;5037301;28;45452;-72
2023/08/04 03:49:18;;;;;;;;;1.00;1.00;;;;;19.35;68.66;100675.94;5032261;28;45991;-73
2023/08/04 03:51:47;;;;;;;;;2.00;1.00;;;;;19.25;69.81;100686.56;5032612;28;45750;-72
2023/08/04 03:54:13;;;;;;;;;1.33;0.67;;;;;19.27;69.96;100681.25;5017213;28;45566;-72
2023/08/04 03:56:38;;;;;;;;;1.67;1.00;;;;;19.20;69.51;100682.16;5017164;28;45883;-71
2023/08/04 03:59:04;;;;;;;;;1.00;1.00;;;;;19.18;68.95;100679.53;5036974;28;45431;-72
2023/08/04 04:01:29;;;;;;;;;2.33;1.00;;;;;19.25;68.94;100694.50;5039155;28;45320;-72
2023/08/04 04:03:55;;;;;;;;;2.00;1.00;;;;;19.31;68.56;100698.91;5040663;28;45391;-71
2023/08/04 04:06:20;;;;;;;;;2.33;1.00;;;;;19.24;68.47;100702.47;5040647;28;45453;-72
2023/08/04 04:08:46;;;;;;;;;1.00;1.00;;;;;19.23;68.37;100706.88;5040347;28;45512;-73
2023/08/04 04:11:12;;;;;;;;;1.33;0.00;;;;;19.31;68.23;100713.91;5039079;28;45344;-73
2023/08/04 04:13:37;;;;;;;;;1.33;1.33;;;;;19.35;68.23;100705.06;5040559;28;45498;-74
2023/08/04 04:16:03;;;;;;;;;1.33;1.00;;;;;19.44;67.91;100710.34;5040167;28;46002;-72
2023/08/04 04:18:28;;;;;;;;;0.00;0.00;;;;;19.39;68.09;100704.19;5040137;28;45470;-74
2023/08/04 04:20:54;;;;;;;;;0.67;0.00;;;;;19.45;68.06;100717.41;5040579;28;45362;-72
2023/08/04 04:23:20;;;;;;;;;1.00;1.00;;;;;19.47;68.00;100727.09;5040319;28;45458;-74
2023/08/04 04:25:45;;;;;;;;;1.00;1.00;;;;;19.56;67.42;100735.91;5038780;28;45498;-73
2023/08/04 04:28:11;;;;;;;;;0.33;0.00;;;;;19.56;67.53;100728.84;5040144;28;45415;-72
2023/08/04 04:30:36;;;;;;;;;1.00;1.00;;;;;19.57;67.91;100730.59;5040242;28;45177;-72
2023/08/04 04:33:02;;;;;;;;;1.00;0.00;;;;;19.57;67.82;100727.94;5040277;28;45879;-73
2023/08/04 04:35:27;;;;;;;;;2.00;1.00;;;;;19.58;67.49;100723.53;5039892;28;45977;-73
2023/08/04 04:37:53;;;;;;;;;2.00;0.33;;;;;19.57;67.02;100717.34;5040268;28;45487;-74
2023/08/04 04:40:19;;;;;;;;;2.67;1.67;;;;;19.48;67.40;100702.38;5039889;28;45438;-72
2023/08/04 04:42:44;;;;;;;;;1.00;0.00;;;;;19.50;67.25;100691.78;5040230;28;45554;-73
2023/08/04 04:45:10;;;;;;;;;1.00;1.00;;;;;19.46;67.33;100682.09;5039692;28;46006;-72
2023/08/04 04:47:36;;;;;;;;;1.33;1.00;;;;;19.54;67.72;100690.88;5039480;28;45401;-72
2023/08/04 04:50:02;;;;;;;;;1.00;1.00;;;;;19.52;67.49;100689.09;5038500;28;45482;-72
2023/08/04 04:52:34;;;;;;;;;1.00;1.00;;;;;19.47;67.58;100702.38;5038604;28;45452;-71
2023/08/04 04:55:00;;;;;;;;;1.33;1.00;;;;;19.41;67.64;100724.47;5039644;28;45544;-73
2023/08/04 04:57:27;;;;;;;;;1.33;1.33;;;;;19.22;69.26;100718.38;5039555;28;45521;-73
2023/08/04 05:00:48;;;;;;;;;1.00;0.67;;;;;19.25;68.60;100746.59;5039682;28;45443;-72
2023/08/04 05:03:14;;;;;;;;;2.00;1.00;;;;;19.25;69.09;100739.53;5035815;28;45500;-71
2023/08/04 05:05:41;;;;;;;;;1.00;0.00;;;;;19.25;68.63;100742.19;5039306;28;45479;-72
2023/08/04 05:08:07;;;;;;;;;1.00;1.00;;;;;19.20;68.59;100733.38;5039479;28;45479;-72
2023/08/04 05:10:33;;;;;;;;;1.00;1.00;;;;;19.22;68.77;100736.91;5037491;28;45590;-71
2023/08/04 05:12:59;;;;;;;;;0.33;0.00;;;;;19.21;68.51;100727.19;5038508;28;45539;-71
2023/08/04 05:15:24;;;;;;;;;1.00;0.33;;;;;19.23;68.64;100737.78;5035358;28;45473;-71
2023/08/04 05:17:50;;;;;;;;;0.00;0.00;;;;;19.20;68.76;100743.06;5038031;28;45371;-71
2023/08/04 05:20:16;;;;;;;;;1.33;1.00;;;;;19.27;68.53;100756.28;5042740;28;45333;-72
2023/08/04 05:22:41;;;;;;;;;2.00;1.33;;;;;19.25;68.63;100743.94;5047619;28;45582;-70
2023/08/04 05:25:08;;;;;;;;;1.33;1.00;;;;;19.25;69.32;100762.50;5047876;28;45514;-71
2023/08/04 05:27:33;;;;;;;;;0.67;0.67;;;;;19.28;69.31;100766.03;5046973;28;45482;-73
2023/08/04 05:30:01;;;;;;;;;0.67;0.00;;;;;19.34;68.61;100761.56;5040233;28;45445;-72
2023/08/04 05:32:27;;;;;;;;;1.33;1.33;;;;;19.41;68.31;100752.75;5039940;28;45939;-71
2023/08/04 05:35:02;;;;;;;;;0.00;0.00;;;;;19.45;68.17;100743.88;5040411;28;46052;-71
2023/08/04 05:37:27;;;;;;;;;2.00;1.00;;;;;19.50;68.42;100741.22;5037082;28;46217;-71
2023/08/04 05:39:53;;;;;;;;;0.33;0.33;;;;;19.34;68.33;100741.28;5037594;28;45422;-71
2023/08/04 05:42:19;;;;;;;;;2.33;1.00;;;;;19.40;68.85;100741.25;5038023;28;45295;-71
2023/08/04 05:44:44;;;;;;;;;0.00;0.00;;;;;19.45;68.45;100738.59;5037990;28;46018;-72
2023/08/04 05:47:10;;;;;;;;;1.00;1.00;;;;;19.52;67.86;100732.41;5038081;28;45412;-71
2023/08/04 05:49:35;;;;;;;;;1.00;1.00;;;;;19.43;68.35;100737.72;5038242;28;45425;-71
2023/08/04 05:52:01;;;;;;;;;2.33;1.00;;;;;19.45;68.38;100728.00;5038600;28;45378;-71
2023/08/04 05:54:27;;;;;;;;;2.33;1.00;;;;;19.42;69.10;100741.28;5037645;28;45823;-74
2023/08/04 05:56:52;;;;;;;;;0.33;0.33;;;;;19.44;69.01;100776.59;5036179;28;45432;-73
2023/08/04 05:59:18;;;;;;;;;2.00;1.00;;;;;19.51;69.19;100810.09;5037574;28;45581;-72
2023/08/04 06:01:44;;;;;;;;;1.00;1.00;;;;;19.46;68.26;100794.22;5037888;28;45707;-73
2023/08/04 06:04:10;;;;;;;;;0.67;0.67;;;;;19.51;68.00;100799.50;5037417;28;45557;-73
2023/08/04 06:06:35;;;;;;;;;1.00;1.00;;;;;19.40;68.03;100803.97;5037196;28;45470;-73
2023/08/04 06:09:01;;;;;;;;;1.00;1.00;;;;;19.27;67.95;100790.72;5038061;28;45424;-74
2023/08/04 06:11:27;;;;;;;;;1.00;0.33;;;;;19.19;67.92;100783.69;5038409;28;45455;-73
2023/08/04 06:13:52;;;;;;;;;2.67;1.00;;;;;19.28;67.81;100804.88;5038103;28;45541;-72
2023/08/04 06:16:18;;;;;;;;;1.67;1.33;;;;;19.29;68.15;100796.03;5038172;28;45532;-71
2023/08/04 06:18:43;;;;;;;;;1.00;1.00;;;;;19.34;67.67;100804.88;5038291;28;45596;-72
2023/08/04 06:21:09;;;;;;;;;2.00;1.00;;;;;19.45;67.87;100808.34;5037997;28;45379;-71
2023/08/04 06:23:35;;;;;;;;;1.00;1.00;;;;;19.51;67.33;100807.47;5037214;28;46022;-72
2023/08/04 06:26:00;;;;;;;;;0.67;0.67;;;;;19.59;67.62;100807.44;5038159;28;45662;-71
2023/08/04 06:28:26;;;;;;;;;2.67;2.00;;;;;19.65;67.46;100829.50;5038115;28;45489;-71
2023/08/04 06:30:51;;;;;;;;;1.00;1.00;;;;;19.63;67.48;100825.97;5038476;28;45224;-71
2023/08/04 06:33:17;;;;;;;;;1.00;1.00;;;;;19.62;66.92;100832.16;5037859;28;45205;-72
2023/08/04 06:35:44;;;;;;;;;0.00;0.00;;;;;19.54;66.84;100812.75;5036471;28;45508;-71
2023/08/04 06:38:10;;;;;;;;;2.67;2.00;;;;;19.41;66.32;100811.03;5038116;28;45166;-71
2023/08/04 06:40:36;;;;;;;;;2.00;1.00;;;;;19.34;64.90;100798.66;5037058;28;45644;-71
2023/08/04 06:43:01;;;;;;;;;0.00;0.00;;;;;19.41;64.91;100805.72;5037963;28;45422;-71
2023/08/04 06:45:28;;;;;;;;;0.33;0.33;;;;;19.55;64.15;100801.25;5037902;28;45352;-71
2023/08/04 06:47:54;;;;;;;;;1.33;1.00;;;;;19.71;64.37;100804.78;5038150;28;45533;-71
2023/08/04 06:50:20;;;;;;;;;1.00;1.00;;;;;19.81;64.65;100806.50;5037761;28;45335;-71
2023/08/04 06:52:46;;;;;;;;;0.33;0.33;;;;;19.93;64.97;100802.91;5037625;28;46065;-71
2023/08/04 06:55:12;;;;;;;;;1.00;1.00;;;;;19.93;66.14;100807.34;5037680;28;45296;-71
2023/08/04 06:57:38;;;;;;;;;2.33;1.33;;;;;19.68;65.83;100805.66;5037889;28;45243;-71
2023/08/04 07:00:04;;;;;;;;;1.00;0.00;;;;;19.60;65.31;100817.16;5036550;28;45433;-70
2023/08/04 07:02:29;;;;;;;;;1.33;1.33;;;;;19.64;65.73;100830.41;5037365;28;45259;-71
2023/08/04 07:04:55;;;;;;;;;3.00;2.67;;;;;19.77;66.55;100822.44;5037195;28;45411;-70
2023/08/04 07:07:21;;;;;;;;;2.67;2.67;;;;;19.91;66.40;100831.22;5037409;28;45375;-71
2023/08/04 07:09:46;;;;;;;;;2.00;1.33;;;;;20.07;65.95;100818.78;5037831;28;45413;-71
2023/08/04 07:12:12;;;;;;;;;0.67;0.33;;;;;20.28;65.01;100820.44;5037332;28;45500;-71
2023/08/04 07:14:38;;;;;;;;;1.33;0.67;;;;;20.40;64.63;100815.06;5037277;28;45609;-71
2023/08/04 07:17:04;;;;;;;;;1.33;1.00;;;;;20.68;63.92;100809.59;5037343;28;45533;-73
2023/08/04 07:19:29;;;;;;;;;0.67;0.67;;;;;20.66;63.72;100800.78;5035374;28;45503;-71
2023/08/04 07:21:55;;;;;;;;;3.00;1.67;;;;;20.63;64.69;100829.97;5036129;28;45917;-72
2023/08/04 07:24:20;;;;;;;;;0.67;0.67;;;;;20.53;65.63;100838.84;5036330;28;45531;-71
2023/08/04 07:26:46;;;;;;;;;1.00;0.00;;;;;20.29;64.77;100824.84;5036456;28;45335;-71
2023/08/04 07:29:12;;;;;;;;;0.67;0.67;;;;;20.32;64.92;100848.72;5036819;28;45324;-70
2023/08/04 07:31:42;;;;;;;;;3.33;3.00;;;;;20.12;66.71;100854.13;5036511;28;46118;-71
2023/08/04 07:34:11;;;;;;;;;2.33;2.33;;;;;20.00;66.64;100840.91;5036284;28;45368;-72
2023/08/04 07:36:37;;;;;;;;;3.33;2.67;;;;;20.01;66.25;100848.84;5036731;28;45509;-71
2023/08/04 07:39:02;;;;;;;;;1.00;1.00;;;;;20.06;65.61;100857.69;5036501;28;45413;-71
2023/08/04 07:41:29;;;;;;;;;0.67;0.67;;;;;20.18;64.88;100858.53;5035943;28;46105;-72
2023/08/04 07:43:55;;;;;;;;;0.00;0.00;;;;;20.14;64.40;100847.03;5034873;28;45503;-73
2023/08/04 07:46:26;;;;;;;;;1.33;1.33;;;;;20.16;63.85;100863.81;5035852;28;45366;-74
2023/08/04 07:48:59;;;;;;;;;0.67;0.67;;;;;19.98;63.04;100842.69;5033370;28;45415;-71
2023/08/04 07:51:29;;;;;;;;;1.67;0.67;;;;;20.17;63.24;100848.78;5034090;28;46544;-71
2023/08/04 07:53:55;;;;;;;;;1.33;0.33;;;;;20.34;63.37;100854.03;5033653;28;45549;-72
2023/08/04 07:56:20;;;;;;;;;4.00;0.67;;;;;20.50;62.09;100870.75;5036172;28;46505;-72
2023/08/04 07:58:49;;;;;;;;;1.00;0.33;;;;;20.52;62.40;100866.31;5036844;28;45434;-71
2023/08/04 08:01:14;;;;;;;;;1.00;0.00;;;;;20.64;62.29;100868.91;5036279;28;45527;-72
2023/08/04 08:03:41;;;;;;;;;2.00;1.67;;;;;20.77;63.04;100875.00;5036306;28;45769;-72
2023/08/04 08:06:07;;;;;;;;;1.00;1.00;;;;;20.77;62.41;100859.97;5035979;28;45304;-72
2023/08/04 08:08:32;;;;;;;;;1.33;1.33;;;;;20.86;62.11;100865.22;5035762;28;45522;-71
2023/08/04 08:10:59;;;;;;;;;2.33;1.33;;;;;20.99;62.19;100870.41;5035361;28;45747;-72
2023/08/04 08:13:25;;;;;;;;;1.00;1.00;;;;;21.15;62.42;100869.44;5035703;28;45521;-72
2023/08/04 08:15:50;;;;;;;;;1.67;1.67;;;;;21.16;62.02;100871.16;5035236;28;45461;-73
2023/08/04 08:18:16;;;;;;;;;3.00;2.33;;;;;21.08;62.82;100873.00;5034598;28;45431;-72
2023/08/04 08:20:43;;;;;;;;;2.00;2.00;;;;;21.05;62.43;100867.75;5036062;28;45514;-73
2023/08/04 08:23:09;;;;;;;;;2.00;1.33;;;;;21.18;62.82;100861.41;5034725;28;45478;-72
2023/08/04 08:25:35;;;;;;;;;2.00;2.00;;;;;21.42;62.33;100870.94;5034145;28;45636;-73
2023/08/04 08:28:01;;;;;;;;;3.00;3.00;;;;;21.60;61.61;100869.91;5035959;28;45461;-75
2023/08/04 08:30:27;;;;;;;;;2.00;2.00;;;;;21.66;61.74;100868.97;5035400;28;46340;-73
2023/08/04 08:32:53;;;;;;;;;3.00;2.00;;;;;21.80;61.96;100871.47;5034214;28;45475;-72
2023/08/04 08:35:18;;;;;;;;;4.00;3.00;;;;;21.91;62.07;100868.72;5035929;28;45395;-72
2023/08/04 08:37:44;;;;;;;;;2.67;2.67;;;;;21.91;62.84;100879.34;5036153;28;45386;-72
2023/08/04 08:40:10;;;;;;;;;7.33;7.00;;;;;21.89;62.61;100884.69;5034290;28;47259;-75
2023/08/04 08:42:36;;;;;;;;;3.00;2.00;;;;;21.79;62.08;100875.03;5035526;28;45425;-72
2023/08/04 08:45:02;;;;;;;;;2.00;2.00;;;;;21.79;62.55;100889.22;5033978;28;45502;-73
2023/08/04 08:47:35;;;;;;;;;2.00;2.00;;;;;21.63;63.70;100885.84;5037209;28;45470;-73
2023/08/04 08:50:02;;;;;;;;;2.00;2.00;;;;;21.62;63.14;100886.72;5038273;28;45390;-73
2023/08/04 08:52:33;;;;;;;;;0.33;0.33;;;;;21.79;62.76;100878.56;5037330;28;45429;-73
2023/08/04 08:54:59;;;;;;;;;1.00;1.00;;;;;21.89;62.09;100866.06;5033209;28;45521;-73
2023/08/04 08:57:27;;;;;;;;;2.67;2.00;;;;;22.14;61.52;100879.06;5038762;28;45326;-73
2023/08/04 08:59:57;;;;;;;;;3.33;2.67;;;;;22.35;61.88;100876.16;5035952;28;45493;-72
2023/08/04 09:02:23;;;;;;;;;2.67;2.33;;;;;22.56;61.76;100875.00;5036619;28;45534;-72
2023/08/04 09:04:49;;;;;;;;;3.00;3.00;;;;;22.61;61.66;100872.25;5038136;28;46015;-72
2023/08/04 09:07:14;;;;;;;;;3.00;3.00;;;;;22.88;61.06;100892.28;5038322;28;45375;-72
2023/08/04 09:09:40;;;;;;;;;3.00;2.00;;;;;22.70;61.86;100898.75;5038517;28;46022;-71
2023/08/04 09:12:07;;;;;;;;;2.00;2.00;;;;;22.50;61.64;100904.38;5038049;28;45403;-71
2023/08/04 09:14:52;;;;;;;;;1.00;1.00;;;;;22.56;62.05;100912.25;5034194;28;45447;-72
2023/08/04 09:17:38;;;;;;;;;6.33;5.00;;;;;23.15;61.01;100906.94;5036457;28;45448;-72
2023/08/04 09:20:07;;;;;;;;;3.00;2.00;;;;;23.68;60.59;100906.06;5036245;28;45517;-72
2023/08/04 09:22:39;;;;;;;;;3.00;2.33;;;;;23.38;59.24;100898.59;5034808;28;45466;-72
2023/08/04 09:25:05;;;;;;;;;2.00;2.00;;;;;23.51;60.38;100920.56;5037617;28;45478;-71
2023/08/04 09:27:39;;;;;;;;;4.67;2.00;;;;;23.49;58.92;100924.19;5038170;28;45442;-71
2023/08/04 09:30:11;;;;;;;;;2.00;1.00;;;;;23.58;59.15;100932.03;5037954;28;46061;-72
2023/08/04 09:32:44;;;;;;;;;4.00;4.00;;;;;23.63;58.27;100920.38;5035140;28;45512;-72
2023/08/04 09:35:15;;;;;;;;;4.00;3.00;;;;;23.87;58.63;100935.97;5037358;28;45422;-71
2023/08/04 09:37:42;;;;;;;;;2.00;1.00;;;;;24.17;57.56;100931.81;5038126;28;45431;-72
2023/08/04 09:40:18;;;;;;;;;1.00;1.00;;;;;24.34;57.04;100935.03;5035892;28;45297;-72
2023/08/04 09:42:45;;;;;;;;;2.00;1.67;;;;;24.27;57.15;100944.06;5037663;28;45300;-74
2023/08/04 09:45:15;;;;;;;;;2.33;2.00;;;;;24.28;57.25;100937.81;5036449;28;45776;-73
2023/08/04 09:47:51;;;;;;;;;2.00;1.00;;;;;24.31;57.34;100931.53;5038115;28;45502;-72
2023/08/04 09:50:18;;;;;;;;;1.67;1.00;;;;;24.74;56.65;100947.53;5034163;28;46914;-71
2023/08/04 09:52:44;;;;;;;;;2.00;2.00;;;;;25.37;56.76;100939.88;5037632;28;45378;-77
2023/08/04 09:55:13;;;;;;;;;1.00;1.00;;;;;26.41;53.87;100949.56;5036166;28;45479;-74
2023/08/04 09:57:39;;;;;;;;;3.00;1.67;;;;;27.48;51.64;100945.34;5035501;28;45474;-74
2023/08/04 10:00:09;;;;;;;;;1.00;1.00;;;;;28.71;48.53;100905.06;5036236;28;46198;-76
2023/08/04 10:02:35;;;;;;;;;1.00;1.00;;;;;29.72;45.82;100933.22;5033287;28;45478;-76
2023/08/04 10:05:02;;;;;;;;;1.00;0.33;;;;;30.33;46.18;100931.41;5037098;28;45516;-76
2023/08/04 10:07:31;;;;;;;;;0.67;0.67;;;;;29.97;44.39;100928.56;5037092;28;45351;-75
2023/08/04 10:10:00;;;;;;;;;1.00;1.00;;;;;29.13;44.75;100947.38;5037681;28;45426;-76
2023/08/04 10:12:27;;;;;;;;;1.67;1.00;;;;;28.96;45.92;100942.63;5036305;28;45292;-75
2023/08/04 10:14:53;;;;;;;;;0.67;0.67;;;;;28.14;45.19;100952.91;5037719;28;45508;-77
2023/08/04 10:17:19;;;;;;;;;3.00;2.00;;;;;26.87;47.86;100956.25;5037540;28;45438;-78
2023/08/04 10:19:45;;;;;;;;;2.00;2.00;;;;;25.90;49.73;100966.13;5035870;28;46394;-79
2023/08/04 10:22:12;;;;;;;;;1.00;1.00;;;;;24.13;52.19;100975.50;5035301;28;45458;-75
2023/08/04 10:24:41;;;;;;;;;1.67;1.00;;;;;23.86;54.49;100984.91;5035470;28;45381;-77
2023/08/04 10:27:20;;;;;;;;;2.00;2.00;;;;;23.84;54.40;100994.75;5037015;28;45498;-82
2023/08/04 10:30:00;;;;;;;;;1.67;1.67;;;;;23.68;55.76;100997.63;5036920;28;45448;-74
2023/08/04 10:32:37;;;;;;;;;2.00;2.00;;;;;23.94;55.22;100997.19;5036415;28;45489;-76
2023/08/04 10:35:18;;;;;;;;;1.00;1.00;;;;;24.07;55.44;100988.97;5036898;28;45379;-74
2023/08/04 10:37:53;;;;;;;;;4.00;2.00;;;;;24.37;55.99;100991.06;5037085;28;45808;-73
2023/08/04 10:40:45;;;;;;;;;1.67;1.00;;;;;24.52;53.38;100984.53;5036114;28;46027;-73
2023/08/04 10:43:11;;;;;;;;;2.00;1.00;;;;;24.80;52.46;100990.16;5034006;28;45297;-73
2023/08/04 10:45:55;;;;;;;;;5.00;5.00;;;;;24.93;53.12;100989.88;5037344;28;45298;-74
2023/08/04 10:48:22;;;;;;;;;1.67;1.67;;;;;25.10;53.36;100990.38;5037837;28;45182;-74
2023/08/04 10:50:50;;;;;;;;;2.00;2.00;;;;;25.38;53.24;100987.97;5037127;28;46071;-74
2023/08/04 10:53:16;;;;;;;;;1.33;1.00;;;;;25.52;52.46;100981.41;5035251;28;45415;-74
2023/08/04 10:55:57;;;;;;;;;2.00;2.00;;;;;25.68;51.65;100981.88;5035450;28;45484;-74
2023/08/04 10:58:24;;;;;;;;;3.00;2.00;;;;;25.78;52.12;101000.34;5035831;28;46105;-75
2023/08/04 11:00:52;;;;;;;;;2.33;2.33;;;;;25.84;51.80;100998.41;5036734;28;45401;-74
2023/08/04 11:03:23;;;;;;;;;1.33;1.00;;;;;26.04;50.31;100989.91;5036938;28;45453;-74
2023/08/04 11:05:50;;;;;;;;;3.00;2.00;;;;;25.89;49.66;100993.84;5036854;28;45303;-74
2023/08/04 11:08:17;;;;;;;;;2.00;1.00;;;;;25.94;50.67;100992.84;5037330;28;45490;-74
2023/08/04 11:11:01;;;;;;;;;3.00;2.00;;;;;26.19;52.09;100989.47;5036800;28;45386;-75
2023/08/04 11:13:26;;;;;;;;;1.00;1.00;;;;;26.48;50.61;100990.44;5036819;28;45384;-74
2023/08/04 11:15:53;;;;;;;;;2.00;1.00;;;;;26.41;50.10;100988.88;5037085;28;45534;-74
2023/08/04 11:18:23;;;;;;;;;5.00;5.00;;;;;26.36;50.34;100992.56;5037451;28;45435;-74
2023/08/04 11:20:49;;;;;;;;;2.00;2.00;;;;;26.34;50.18;100989.06;5037078;28;46254;-75
2023/08/04 11:23:25;;;;;;;;;2.67;2.67;;;;;26.32;50.69;100990.91;5037041;28;45272;-74
2023/08/04 11:25:50;;;;;;;;;1.00;1.00;;;;;26.38;50.03;100988.03;5037100;28;45693;-74
2023/08/04 11:28:19;;;;;;;;;4.00;2.67;;;;;26.29;50.25;100998.13;5037231;28;45438;-75
2023/08/04 11:30:44;;;;;;;;;2.33;2.00;;;;;25.92;49.88;100997.31;5036678;28;45657;-74
2023/08/04 11:33:10;;;;;;;;;4.00;3.67;;;;;25.71;51.21;101009.44;5036603;28;45461;-74
2023/08/04 11:35:35;;;;;;;;;0.00;0.00;;;;;25.85;51.31;101009.09;5037195;28;45565;-75